Time;durP1;ratioP1;P1;durP2;ratioP2;P2;SDS_P1;SDS_P2;PMS_P1;PMS_P2;Temp;Humidity;BMP_temperature;BMP_pressure;BME280_temperature;BME280_humidity;BME280_pressure;Samples;Min_cycle;Max_cycle;Signal;HPM_P1;HPM_P2
2023/05/29 03:16:17;;;;;;;9.70;2.92;;;13.30;83.00;;;;;;6169416;22;93688;-69
2023/05/29 03:18:43;;;;;;;7.97;3.20;;;13.30;83.10;;;;;;6245603;22;92716;-70
2023/05/29 03:21:08;;;;;;;7.57;2.67;;;13.30;83.20;;;;;;6246826;22;92432;-69
2023/05/29 03:23:34;;;;;;;8.70;3.05;;;13.30;83.70;;;;;;6266925;22;92011;-69
2023/05/29 03:26:00;;;;;;;8.95;2.97;;;13.30;83.20;;;;;;6277259;22;94488;-68
2023/05/29 03:28:26;;;;;;;8.68;3.22;;;13.30;83.60;;;;;;6278170;22;93727;-69
2023/05/29 03:30:51;;;;;;;8.18;2.85;;;13.30;83.20;;;;;;6276596;22;92401;-70
2023/05/29 03:33:17;;;;;;;7.78;2.78;;;13.30;83.90;;;;;;6277439;22;91978;-69
2023/05/29 03:35:42;;;;;;;11.13;2.92;;;13.30;83.60;;;;;;6278070;22;93740;-69
2023/05/29 03:38:09;;;;;;;9.63;3.08;;;13.30;84.10;;;;;;6276679;22;93388;-71
2023/05/29 03:40:35;;;;;;;9.98;2.72;;;13.30;84.50;;;;;;6278257;22;91980;-70
2023/05/29 03:43:00;;;;;;;7.15;2.75;;;13.30;84.10;;;;;;6249968;22;91973;-70
2023/05/29 03:45:26;;;;;;;8.75;3.10;;;13.30;83.60;;;;;;6249515;22;96262;-70
2023/05/29 03:47:52;;;;;;;6.35;2.90;;;13.30;83.80;;;;;;6277612;22;93157;-69
2023/05/29 03:50:17;;;;;;;12.00;3.10;;;13.40;84.00;;;;;;6276737;22;93401;-69
2023/05/29 03:52:44;;;;;;;10.18;2.72;;;13.40;83.30;;;;;;6278377;22;92262;-68
2023/05/29 03:55:14;;;;;;;9.45;2.55;;;13.40;81.50;;;;;;6277395;22;93560;-69
2023/05/29 03:57:40;;;;;;;5.70;2.20;;;13.50;81.50;;;;;;6277579;22;92677;-69
2023/05/29 04:00:11;;;;;;;6.28;1.90;;;13.80;80.20;;;;;;6277376;22;92718;-68
2023/05/29 04:02:40;;;;;;;7.30;2.20;;;14.00;79.20;;;;;;6276305;22;92435;-68
2023/05/29 04:05:07;;;;;;;7.13;2.08;;;14.40;78.10;;;;;;6277466;22;93160;-68
2023/05/29 04:07:33;;;;;;;7.78;2.22;;;14.80;76.80;;;;;;6278514;22;92843;-68
2023/05/29 04:09:59;;;;;;;7.25;1.92;;;15.10;75.90;;;;;;6277797;22;92228;-68
2023/05/29 04:12:24;;;;;;;6.18;2.17;;;15.40;74.60;;;;;;6277567;22;92379;-68
2023/05/29 04:14:53;;;;;;;7.35;2.10;;;15.70;73.20;;;;;;6275407;22;94035;-70
2023/05/29 04:17:19;;;;;;;11.80;2.25;;;16.10;72.30;;;;;;6260031;22;92538;-69
2023/05/29 04:19:44;;;;;;;7.35;1.75;;;16.30;69.90;;;;;;6247173;22;92678;-69
2023/05/29 04:22:10;;;;;;;9.63;2.17;;;16.60;69.20;;;;;;6247157;22;92055;-70
2023/05/29 04:24:36;;;;;;;5.57;2.33;;;16.90;68.60;;;;;;6245369;22;93771;-71
2023/05/29 04:27:02;;;;;;;3.25;1.40;;;17.20;68.80;;;;;;6246417;22;92606;-72
2023/05/29 04:29:29;;;;;;;10.20;2.50;;;17.60;67.20;;;;;;6246856;22;92523;-71
2023/05/29 04:31:55;;;;;;;6.68;2.08;;;17.90;65.40;;;;;;6247478;22;91680;-70
2023/05/29 04:34:21;;;;;;;8.98;1.95;;;18.20;65.40;;;;;;6245431;22;92303;-70
2023/05/29 04:36:47;;;;;;;7.30;1.77;;;18.60;63.40;;;;;;6245151;22;92874;-72
2023/05/29 04:39:13;;;;;;;5.57;1.90;;;18.90;62.10;;;;;;6246192;22;94583;-72
2023/05/29 04:41:40;;;;;;;5.85;2.40;;;19.20;61.90;;;;;;6246838;22;92240;-71
2023/05/29 04:44:07;;;;;;;6.75;2.28;;;19.50;60.70;;;;;;6245297;22;93935;-71
2023/05/29 04:46:34;;;;;;;5.15;2.10;;;19.80;60.40;;;;;;6218786;22;94678;-71
2023/05/29 04:49:02;;;;;;;7.07;1.90;;;20.30;59.30;;;;;;6246593;22;92664;-71
2023/05/29 04:51:29;;;;;;;3.90;2.03;;;20.90;58.50;;;;;;6246803;22;92484;-70
2023/05/29 04:53:56;;;;;;;5.55;2.22;;;21.20;56.50;;;;;;6246102;22;93258;-70
2023/05/29 04:56:22;;;;;;;5.20;2.00;;;21.10;55.90;;;;;;6245529;22;93472;-70
2023/05/29 04:58:48;;;;;;;5.13;1.80;;;21.40;55.70;;;;;;6246972;22;92405;-71
2023/05/29 05:01:14;;;;;;;4.47;2.65;;;21.70;55.20;;;;;;6219987;22;92454;-70
2023/05/29 05:03:41;;;;;;;5.18;2.13;;;21.90;54.30;;;;;;6245159;22;94127;-72
2023/05/29 05:06:07;;;;;;;6.72;1.92;;;22.10;54.40;;;;;;6244897;22;93777;-70
2023/05/29 05:08:33;;;;;;;5.03;2.05;;;22.50;55.00;;;;;;6245475;22;92443;-71
2023/05/29 05:11:00;;;;;;;6.65;2.10;;;23.20;53.70;;;;;;6246692;22;92463;-71
2023/05/29 05:13:27;;;;;;;5.00;2.40;;;24.00;51.50;;;;;;6246045;22;92696;-70
2023/05/29 05:15:53;;;;;;;7.07;2.72;;;23.70;51.10;;;;;;6244776;22;92812;-69
2023/05/29 05:18:18;;;;;;;6.57;2.53;;;23.80;50.10;;;;;;6245244;22;92837;-69
2023/05/29 05:20:45;;;;;;;8.05;2.38;;;24.40;50.10;;;;;;6247440;22;91723;-71
2023/05/29 05:23:11;;;;;;;5.85;2.83;;;24.70;49.90;;;;;;6244326;22;93111;-71
2023/05/29 05:25:38;;;;;;;6.35;2.63;;;25.70;48.90;;;;;;6245503;22;93143;-73
2023/05/29 05:28:04;;;;;;;7.00;2.80;;;26.10;46.30;;;;;;6244664;22;93502;-71
2023/05/29 05:30:30;;;;;;;6.38;2.53;;;26.00;45.80;;;;;;6245501;22;92610;-70
2023/05/29 05:32:56;;;;;;;5.88;2.60;;;26.10;46.60;;;;;;6244862;22;92571;-69
2023/05/29 05:35:22;;;;;;;4.97;2.78;;;26.70;45.50;;;;;;6245256;22;92742;-71
2023/05/29 05:37:48;;;;;;;9.05;2.67;;;27.00;44.70;;;;;;6245609;22;92503;-71
2023/05/29 05:40:13;;;;;;;5.45;2.50;;;27.00;45.90;;;;;;6245498;22;92710;-70
2023/05/29 05:42:39;;;;;;;4.28;2.17;;;27.50;45.60;;;;;;6245435;22;92607;-70
2023/05/29 05:45:06;;;;;;;5.50;2.70;;;28.40;43.50;;;;;;6246409;22;91525;-70
2023/05/29 05:47:32;;;;;;;6.25;3.35;;;28.70;43.60;;;;;;6244798;22;92294;-70
2023/05/29 05:49:58;;;;;;;6.78;3.13;;;28.80;43.80;;;;;;6245929;22;92364;-70
2023/05/29 05:52:30;;;;;;;6.65;3.08;;;28.80;43.10;;;;;;6244781;22;94655;-70
2023/05/29 05:54:56;;;;;;;7.97;3.17;;;29.50;42.10;;;;;;6247309;22;93299;-70
2023/05/29 05:57:22;;;;;;;8.10;3.42;;;29.80;40.40;;;;;;6245247;22;92685;-71
2023/05/29 05:59:47;;;;;;;7.85;3.35;;;29.90;40.30;;;;;;6247802;22;92053;-68
2023/05/29 06:02:13;;;;;;;8.63;4.80;;;29.40;40.80;;;;;;6250572;22;92645;-71
2023/05/29 06:04:39;;;;;;;6.68;3.33;;;29.40;41.70;;;;;;6250124;22;92094;-71
2023/05/29 06:07:06;;;;;;;6.65;4.28;;;30.40;40.90;;;;;;6250204;22;92283;-70
2023/05/29 06:09:32;;;;;;;11.57;3.53;;;31.00;39.80;;;;;;6251384;22;91336;-69
2023/05/29 06:11:58;;;;;;;6.53;3.75;;;31.30;38.60;;;;;;6249034;22;93556;-70
2023/05/29 06:14:24;;;;;;;8.85;3.78;;;31.20;39.00;;;;;;6248011;22;92412;-68
2023/05/29 06:16:50;;;;;;;7.15;3.10;;;31.40;39.70;;;;;;6249354;22;93399;-69
2023/05/29 06:19:16;;;;;;;7.18;4.25;;;32.20;39.10;;;;;;6250824;22;92246;-70
2023/05/29 06:21:42;;;;;;;6.20;3.33;;;32.90;37.60;;;;;;6247266;22;93033;-70
2023/05/29 06:24:08;;;;;;;5.95;3.80;;;33.20;38.10;;;;;;6249240;22;92587;-71
2023/05/29 06:26:33;;;;;;;5.90;3.67;;;33.90;37.50;;;;;;6249453;22;92617;-70
2023/05/29 06:28:59;;;;;;;7.75;3.97;;;34.00;36.40;;;;;;6222534;22;92327;-69
2023/05/29 06:31:25;;;;;;;7.18;4.25;;;34.30;37.00;;;;;;6248001;22;92560;-70
2023/05/29 06:33:51;;;;;;;7.10;4.10;;;34.40;36.20;;;;;;6248123;22;92677;-69
2023/05/29 06:36:16;;;;;;;8.27;4.35;;;34.40;37.10;;;;;;6244512;22;92517;-70
2023/05/29 06:38:49;;;;;;;6.10;3.88;;;34.70;36.90;;;;;;6248139;22;92450;-70
2023/05/29 06:41:14;;;;;;;8.02;4.22;;;33.70;37.30;;;;;;6248326;22;93531;-70
2023/05/29 06:43:40;;;;;;;7.28;4.30;;;33.50;37.80;;;;;;6249246;22;94311;-69
2023/05/29 06:46:06;;;;;;;8.02;4.50;;;33.90;36.40;;;;;;6248003;22;92527;-68
2023/05/29 06:48:35;;;;;;;9.20;5.88;;;34.80;36.20;;;;;;6248917;22;92539;-70
2023/05/29 06:51:03;;;;;;;6.80;3.72;;;35.10;36.50;;;;;;6250220;22;92786;-70
2023/05/29 06:53:29;;;;;;;7.47;4.55;;;34.90;36.90;;;;;;6245946;22;92293;-70
2023/05/29 06:55:54;;;;;;;7.05;3.60;;;35.90;36.10;;;;;;6247630;22;92146;-69
2023/05/29 06:58:20;;;;;;;6.63;3.70;;;36.00;35.50;;;;;;6249460;22;92125;-69
2023/05/29 07:00:46;;;;;;;8.18;4.20;;;36.50;35.10;;;;;;6248084;22;92511;-71
2023/05/29 07:03:11;;;;;;;8.75;4.57;;;36.40;35.60;;;;;;6248275;22;92983;-70
2023/05/29 07:05:37;;;;;;;6.78;4.55;;;36.70;35.80;;;;;;6246761;22;93425;-70
2023/05/29 07:08:03;;;;;;;9.57;4.90;;;36.60;34.30;;;;;;6245740;22;92499;-68
2023/05/29 07:10:28;;;;;;;7.25;4.63;;;36.10;35.50;;;;;;6247700;22;93198;-69
2023/05/29 07:12:54;;;;;;;10.40;6.28;;;36.60;35.60;;;;;;6248286;22;92198;-71
2023/05/29 07:15:20;;;;;;;7.25;4.82;;;37.40;35.80;;;;;;6248379;22;92835;-69
2023/05/29 07:17:45;;;;;;;10.00;7.03;;;37.90;34.70;;;;;;6249584;22;92546;-70
2023/05/29 07:20:11;;;;;;;8.00;4.30;;;38.00;33.40;;;;;;6248611;22;92587;-69
2023/05/29 07:22:37;;;;;;;6.43;4.20;;;38.10;35.00;;;;;;6247458;22;92297;-69
2023/05/29 07:25:03;;;;;;;7.15;5.05;;;38.60;34.10;;;;;;6245907;22;92292;-69
2023/05/29 07:27:29;;;;;;;8.70;5.30;;;38.50;34.10;;;;;;6247882;22;92549;-69
2023/05/29 07:29:55;;;;;;;6.45;4.53;;;38.50;33.70;;;;;;6248105;22;93701;-68
2023/05/29 07:32:21;;;;;;;7.22;4.78;;;38.60;33.60;;;;;;6248859;22;93867;-68
2023/05/29 07:34:49;;;;;;;8.35;5.38;;;39.10;33.60;;;;;;6250264;22;92118;-68
2023/05/29 07:37:15;;;;;;;;;;;39.10;32.20;;;;;;6250748;22;92138;-68
2023/05/29 07:39:42;;;;;;;7.40;4.68;;;38.30;32.40;;;;;;6249052;22;92954;-68
2023/05/29 07:42:08;;;;;;;7.10;5.20;;;38.60;32.90;;;;;;6249675;22;92881;-70
2023/05/29 07:44:33;;;;;;;8.60;5.68;;;38.30;34.70;;;;;;6249994;22;92287;-69
2023/05/29 07:46:59;;;;;;;7.78;4.55;;;38.40;32.70;;;;;;6250735;22;91350;-68
2023/05/29 07:49:25;;;;;;;8.98;5.43;;;38.20;33.30;;;;;;6249752;22;92483;-70
2023/05/29 07:51:50;;;;;;;7.63;5.80;;;38.60;33.70;;;;;;6250192;22;93174;-69
2023/05/29 07:54:20;;;;;;;7.18;5.78;;;39.50;33.40;;;;;;6248405;22;93454;-70
2023/05/29 07:56:46;;;;;;;8.27;4.85;;;39.20;32.90;;;;;;6249842;22;92292;-67
2023/05/29 07:59:12;;;;;;;9.40;5.47;;;39.80;32.90;;;;;;6249656;22;93367;-68
2023/05/29 08:01:39;;;;;;;8.82;5.30;;;39.00;33.00;;;;;;6249736;22;93029;-68
2023/05/29 08:04:04;;;;;;;8.77;5.75;;;39.60;32.50;;;;;;6249783;22;92294;-69
2023/05/29 08:06:32;;;;;;;8.40;6.50;;;40.40;32.20;;;;;;6250034;22;92473;-69
2023/05/29 08:08:58;;;;;;;9.85;4.45;;;40.60;33.30;;;;;;6249809;22;92601;-69
2023/05/29 08:11:23;;;;;;;9.15;6.07;;;40.80;33.20;;;;;;6247906;22;92815;-68
2023/05/29 08:13:49;;;;;;;7.97;5.35;;;41.30;31.90;;;;;;6249375;22;92012;-69
2023/05/29 08:16:16;;;;;;;10.32;6.60;;;41.80;31.20;;;;;;6249202;22;92226;-68
2023/05/29 08:18:43;;;;;;;8.05;6.03;;;41.30;32.20;;;;;;6248444;22;93171;-69
2023/05/29 08:21:11;;;;;;;8.25;5.43;;;41.30;32.70;;;;;;6249361;22;92230;-69
2023/05/29 08:23:37;;;;;;;8.95;6.20;;;41.10;32.10;;;;;;6250113;22;92334;-68
2023/05/29 08:26:03;;;;;;;9.43;5.82;;;41.00;32.40;;;;;;6247663;22;92226;-68
2023/05/29 08:28:29;;;;;;;8.48;5.72;;;41.30;31.90;;;;;;6249012;22;93040;-69
2023/05/29 08:30:54;;;;;;;8.32;4.80;;;41.50;31.10;;;;;;6222622;22;94062;-70
2023/05/29 08:33:20;;;;;;;9.35;7.57;;;41.90;32.30;;;;;;6250193;22;92540;-68
2023/05/29 08:35:46;;;;;;;12.35;6.88;;;42.20;31.40;;;;;;6251080;22;91298;-68
2023/05/29 08:38:11;;;;;;;10.43;6.60;;;42.20;31.20;;;;;;6249208;22;92566;-69
2023/05/29 08:40:37;;;;;;;9.93;5.28;;;42.10;31.80;;;;;;6249579;22;92898;-69
2023/05/29 08:43:12;;;;;;;7.78;5.78;;;42.00;31.80;;;;;;6246336;22;92910;-69
2023/05/29 08:45:43;;;;;;;8.35;5.45;;;42.10;31.30;;;;;;6249885;22;92828;-68
2023/05/29 08:48:10;;;;;;;11.82;5.97;;;42.60;30.70;;;;;;6249608;22;92877;-68
2023/05/29 08:50:47;;;;;;;7.80;6.97;;;42.90;31.10;;;;;;6249248;22;93203;-69
2023/05/29 08:53:15;;;;;;;12.20;6.55;;;43.40;29.70;;;;;;6249855;22;92393;-68
2023/05/29 08:55:41;;;;;;;7.43;4.90;;;43.50;29.60;;;;;;6249385;22;92206;-69
2023/05/29 08:58:07;;;;;;;7.55;5.75;;;43.70;30.30;;;;;;6246953;22;93047;-68
2023/05/29 09:00:33;;;;;;;9.00;5.30;;;43.50;30.00;;;;;;6249452;22;92275;-69
2023/05/29 09:02:59;;;;;;;7.38;5.70;;;43.70;30.80;;;;;;6249500;22;92712;-68
2023/05/29 09:05:27;;;;;;;9.30;7.65;;;43.70;29.80;;;;;;6250063;22;92010;-69
2023/05/29 09:07:53;;;;;;;;;;;44.30;29.80;;;;;;6248368;22;93708;-71
2023/05/29 09:10:20;;;;;;;9.65;7.55;;;43.40;30.70;;;;;;6250020;22;93416;-68
2023/05/29 09:12:46;;;;;;;10.80;6.38;;;43.80;29.80;;;;;;6247614;22;92072;-72
2023/05/29 09:15:21;;;;;;;10.88;6.28;;;44.30;29.60;;;;;;6248935;22;92387;-68
2023/05/29 09:17:59;;;;;;;9.70;6.18;;;44.60;29.80;;;;;;6247840;22;93054;-68
2023/05/29 09:20:27;;;;;;;8.95;5.40;;;43.90;29.80;;;;;;6249347;22;93010;-68
2023/05/29 09:22:53;;;;;;;;;;;44.40;29.20;;;;;;6250471;22;92131;-69
2023/05/29 09:25:22;;;;;;;7.63;5.68;;;44.80;29.50;;;;;;6250941;22;91332;-69
2023/05/29 09:27:53;;;;;;;8.90;6.18;;;45.20;28.60;;;;;;6246381;22;93129;-69
2023/05/29 09:30:39;;;;;;;7.70;4.68;;;45.10;28.40;;;;;;6244543;22;92354;-69
2023/05/29 09:33:07;;;;;;;8.40;6.60;;;44.90;29.40;;;;;;6247029;22;92952;-69
2023/05/29 09:35:39;;;;;;;7.63;5.65;;;44.70;28.70;;;;;;6247185;22;92511;-69
2023/05/29 09:38:07;;;;;;;9.00;7.00;;;44.60;28.50;;;;;;6243984;22;93047;-69
2023/05/29 09:40:34;;;;;;;6.93;6.15;;;44.40;28.90;;;;;;6244837;22;92723;-70
2023/05/29 09:43:20;;;;;;;9.70;5.93;;;44.10;29.30;;;;;;6242999;22;92637;-73
2023/05/29 09:45:47;;;;;;;11.38;8.52;;;43.50;29.60;;;;;;6242900;22;92005;-68
2023/05/29 09:48:18;;;;;;;8.07;5.47;;;43.10;31.50;;;;;;6245025;22;92480;-68
2023/05/29 09:50:47;;;;;;;6.05;4.60;;;42.50;30.00;;;;;;6244575;22;92655;-69
2023/05/29 09:53:20;;;;;;;7.78;6.22;;;42.20;31.10;;;;;;6246566;22;91922;-70
2023/05/29 09:55:50;;;;;;;13.60;5.28;;;41.50;30.80;;;;;;6247431;22;92274;-70
2023/05/29 09:58:17;;;;;;;8.02;4.88;;;40.60;33.00;;;;;;6245668;22;93457;-70
2023/05/29 10:00:43;;;;;;;8.20;4.90;;;39.90;33.10;;;;;;6241548;22;93116;-68
2023/05/29 10:03:12;;;;;;;11.32;7.35;;;39.40;33.10;;;;;;6246605;22;92040;-67
2023/05/29 10:05:39;;;;;;;7.80;4.57;;;38.10;33.60;;;;;;6246215;22;92291;-67
2023/05/29 10:08:11;;;;;;;21.65;13.30;;;37.00;34.40;;;;;;6245643;22;93113;-68
2023/05/29 10:10:38;;;;;;;7.68;4.30;;;35.60;36.90;;;;;;6244420;22;92590;-67
2023/05/29 10:13:09;;;;;;;17.45;10.10;;;34.70;37.60;;;;;;6245939;22;92408;-66
2023/05/29 10:15:36;;;;;;;17.02;9.27;;;33.80;38.50;;;;;;6240737;22;91488;-70
2023/05/29 10:18:20;;;;;;;15.07;8.70;;;33.30;38.70;;;;;;6243887;22;92624;-71
2023/05/29 10:20:53;;;;;;;7.35;3.88;;;32.40;40.40;;;;;;6243606;22;93041;-67
2023/05/29 10:23:23;;;;;;;6.97;3.03;;;31.90;40.70;;;;;;6244027;22;93422;-67
2023/05/29 10:25:56;;;;;;;9.18;3.75;;;31.50;41.10;;;;;;6244896;22;92589;-67
2023/05/29 10:28:23;;;;;;;7.78;3.75;;;30.70;41.60;;;;;;6246186;22;92769;-67
2023/05/29 10:31:06;;;;;;;7.43;3.95;;;30.10;42.60;;;;;;6246766;22;92913;-67
2023/05/29 10:34:04;;;;;;;6.50;3.40;;;30.20;43.30;;;;;;6247224;22;92570;-67
2023/05/29 10:36:42;;;;;;;8.25;3.40;;;30.10;42.30;;;;;;6248372;22;92167;-68
2023/05/29 10:39:08;;;;;;;6.32;3.63;;;30.00;42.70;;;;;;6248900;22;92419;-69
2023/05/29 10:41:39;;;;;;;6.82;4.50;;;29.90;43.00;;;;;;6247768;22;92970;-70
2023/05/29 10:44:30;;;;;;;6.55;3.17;;;29.90;44.00;;;;;;6247954;22;92645;-68
2023/05/29 10:46:59;;;;;;;9.20;3.10;;;29.80;42.60;;;;;;6245809;22;92599;-69
2023/05/29 10:49:24;;;;;;;7.18;4.18;;;29.70;43.70;;;;;;6245968;22;93865;-69
2023/05/29 10:51:51;;;;;;;7.65;3.95;;;29.80;43.40;;;;;;6246700;22;93669;-68
2023/05/29 10:54:23;;;;;;;6.88;3.38;;;29.60;43.80;;;;;;6245370;22;92439;-70
2023/05/29 10:57:00;;;;;;;7.53;2.80;;;29.60;42.80;;;;;;6247357;22;92239;-68
2023/05/29 10:59:28;;;;;;;6.38;3.58;;;29.30;44.30;;;;;;6245820;22;93116;-68
2023/05/29 11:01:54;;;;;;;8.05;3.22;;;29.20;42.90;;;;;;6247806;22;93368;-68
2023/05/29 11:04:20;;;;;;;10.32;3.08;;;29.20;43.70;;;;;;6245585;22;92036;-69
2023/05/29 11:06:46;;;;;;;6.85;3.15;;;29.10;44.30;;;;;;6247911;22;91670;-68
2023/05/29 11:09:34;;;;;;;11.80;2.75;;;29.20;44.40;;;;;;6247341;22;93225;-68
2023/05/29 11:12:25;;;;;;;5.22;2.63;;;29.10;42.30;;;;;;6246678;22;93032;-68
2023/05/29 11:14:56;;;;;;;5.68;2.50;;;28.90;45.10;;;;;;6245348;22;92860;-68
2023/05/29 11:17:37;;;;;;;6.45;2.63;;;29.10;43.30;;;;;;6244718;22;92551;-68
2023/05/29 11:20:08;;;;;;;6.22;3.92;;;29.20;43.60;;;;;;6242767;22;93227;-71
2023/05/29 11:22:56;;;;;;;7.30;2.53;;;29.20;43.80;;;;;;6246069;22;93532;-68
2023/05/29 11:25:22;;;;;;;6.63;3.20;;;29.20;45.60;;;;;;6247846;22;92440;-69
2023/05/29 11:27:48;;;;;;;4.40;2.30;;;29.40;44.70;;;;;;6247830;22;92174;-68
2023/05/29 11:30:14;;;;;;;7.07;2.33;;;29.40;43.70;;;;;;6247696;22;92725;-68
2023/05/29 11:32:42;;;;;;;5.80;2.47;;;29.30;43.90;;;;;;6248036;22;92341;-68
2023/05/29 11:35:09;;;;;;;5.78;3.00;;;29.30;43.30;;;;;;6240542;22;92316;-70
2023/05/29 11:37:39;;;;;;;4.80;2.42;;;29.20;44.00;;;;;;6247078;22;92299;-68
2023/05/29 11:40:07;;;;;;;11.43;2.75;;;29.20;44.10;;;;;;6245865;22;94529;-68
2023/05/29 11:42:33;;;;;;;5.38;2.65;;;29.10;44.20;;;;;;6246658;22;93641;-68
2023/05/29 11:45:16;;;;;;;4.95;2.65;;;29.20;44.80;;;;;;6247874;22;92662;-68
2023/05/29 11:47:56;;;;;;;7.13;3.05;;;29.20;43.70;;;;;;6248468;22;92663;-68
2023/05/29 11:50:24;;;;;;;6.15;2.38;;;29.10;44.60;;;;;;6243717;22;94251;-70
2023/05/29 11:52:51;;;;;;;6.97;2.67;;;29.10;44.20;;;;;;6247144;22;92655;-70
2023/05/29 11:55:19;;;;;;;6.82;2.67;;;29.40;45.20;;;;;;6249788;22;92341;-69
2023/05/29 11:57:45;;;;;;;6.32;2.50;;;29.50;44.20;;;;;;6249075;22;91280;-68
2023/05/29 12:00:14;;;;;;;8.20;2.53;;;29.60;44.80;;;;;;6249058;22;93440;-68
2023/05/29 12:02:42;;;;;;;5.88;2.25;;;29.30;42.40;;;;;;6249253;22;93261;-69
2023/05/29 12:05:08;;;;;;;5.68;3.42;;;29.20;43.70;;;;;;6248947;22;92966;-69
2023/05/29 12:07:35;;;;;;;7.35;2.20;;;28.90;40.70;;;;;;6245688;22;92423;-70
2023/05/29 12:10:10;;;;;;;8.27;2.30;;;28.70;42.60;;;;;;6248465;22;92374;-70
2023/05/29 12:12:36;;;;;;;9.38;2.28;;;28.60;41.10;;;;;;6249747;22;92209;-68
2023/05/29 12:15:05;;;;;;;6.38;2.40;;;28.70;42.80;;;;;;6250279;22;92319;-68
2023/05/29 12:17:31;;;;;;;7.20;2.20;;;28.80;44.40;;;;;;6249604;22;92599;-69
2023/05/29 12:19:57;;;;;;;6.72;2.65;;;28.90;42.30;;;;;;6248540;22;93645;-74
2023/05/29 12:22:36;;;;;;;4.47;2.13;;;28.80;42.70;;;;;;6248500;22;92566;-68
2023/05/29 12:25:07;;;;;;;5.93;2.45;;;28.60;44.10;;;;;;6249652;22;92136;-68
2023/05/29 12:27:41;;;;;;;6.20;2.65;;;28.50;43.30;;;;;;6250308;22;92672;-68
2023/05/29 12:30:11;;;;;;;5.97;2.40;;;28.50;45.10;;;;;;6244692;22;94102;-68
2023/05/29 12:32:38;;;;;;;5.63;2.38;;;28.30;42.20;;;;;;6249721;22;93173;-69
2023/05/29 12:35:14;;;;;;;7.05;3.60;;;28.50;45.60;;;;;;6247652;22;92561;-71
2023/05/29 12:37:59;;;;;;;6.57;2.40;;;28.50;46.30;;;;;;6249245;22;92545;-70
2023/05/29 12:40:34;;;;;;;5.95;2.08;;;28.40;43.40;;;;;;6249179;22;93179;-70
2023/05/29 12:43:05;;;;;;;11.75;2.47;;;28.60;43.30;;;;;;6249245;22;92706;-70
2023/05/29 12:45:33;;;;;;;8.60;2.70;;;28.60;45.20;;;;;;6249908;22;92348;-70
2023/05/29 12:48:03;;;;;;;5.82;2.22;;;28.50;47.20;;;;;;6250539;22;91526;-69
2023/05/29 12:50:32;;;;;;;5.68;2.47;;;28.70;45.80;;;;;;6249582;22;93131;-70
2023/05/29 12:53:05;;;;;;;4.20;1.92;;;28.70;43.30;;;;;;6249598;22;92757;-69
2023/05/29 12:55:41;;;;;;;6.55;2.45;;;28.60;41.10;;;;;;6248972;22;93376;-70
2023/05/29 12:58:15;;;;;;;7.15;3.30;;;28.50;41.10;;;;;;6250202;22;92161;-71
2023/05/29 13:00:43;;;;;;;8.15;2.45;;;28.40;40.50;;;;;;6249366;22;92653;-70
2023/05/29 13:03:10;;;;;;;4.50;2.10;;;28.40;43.00;;;;;;6249361;22;92651;-69
2023/05/29 13:05:36;;;;;;;6.88;2.33;;;28.50;45.60;;;;;;6249712;22;92257;-69
2023/05/29 13:08:02;;;;;;;7.18;2.38;;;28.50;42.60;;;;;;6249859;22;92377;-69
2023/05/29 13:10:28;;;;;;;5.57;2.30;;;28.40;42.90;;;;;;6249002;22;93240;-69
2023/05/29 13:12:55;;;;;;;5.13;2.08;;;28.30;41.20;;;;;;6249105;22;92825;-73
2023/05/29 13:15:23;;;;;;;4.88;2.67;;;28.30;46.00;;;;;;6249430;22;92288;-71
2023/05/29 13:17:49;;;;;;;3.88;2.08;;;28.30;43.70;;;;;;6248652;22;92182;-71
2023/05/29 13:20:15;;;;;;;6.32;2.28;;;28.40;42.60;;;;;;6247988;22;93656;-70
2023/05/29 13:22:43;;;;;;;5.88;2.20;;;28.40;42.70;;;;;;6246146;22;93668;-70
2023/05/29 13:25:11;;;;;;;7.40;2.25;;;28.50;43.90;;;;;;6246133;22;92356;-69
2023/05/29 13:27:38;;;;;;;6.20;2.05;;;28.50;42.80;;;;;;6250634;22;92308;-69
2023/05/29 13:30:05;;;;;;;4.90;2.20;;;28.40;41.10;;;;;;6249456;22;93231;-70
2023/05/29 13:32:31;;;;;;;5.60;2.25;;;28.20;41.50;;;;;;6247680;22;92953;-69
2023/05/29 13:34:57;;;;;;;8.32;3.35;;;28.10;41.90;;;;;;6246493;22;92684;-68
2023/05/29 13:37:23;;;;;;;5.57;2.38;;;28.00;41.70;;;;;;6249606;22;91642;-69
2023/05/29 13:39:49;;;;;;;5.80;2.33;;;28.10;47.40;;;;;;6246816;22;92613;-68
2023/05/29 13:42:15;;;;;;;7.47;2.67;;;28.10;42.40;;;;;;6247787;22;92703;-68
2023/05/29 13:44:41;;;;;;;4.07;2.13;;;28.00;42.20;;;;;;6247237;22;93621;-68
2023/05/29 13:47:07;;;;;;;4.93;3.00;;;28.10;44.90;;;;;;6247276;22;92779;-69
2023/05/29 13:49:34;;;;;;;6.47;2.60;;;28.20;43.90;;;;;;6247805;22;94205;-68
2023/05/29 13:52:00;;;;;;;4.55;2.15;;;28.00;42.50;;;;;;6245596;22;92379;-68
2023/05/29 13:54:29;;;;;;;6.38;2.50;;;27.80;43.00;;;;;;6248495;22;92076;-70
2023/05/29 13:56:56;;;;;;;5.35;2.20;;;27.80;43.90;;;;;;6248578;22;92481;-69
2023/05/29 13:59:21;;;;;;;8.77;2.55;;;27.80;41.10;;;;;;6248220;22;94061;-69
2023/05/29 14:01:47;;;;;;;4.95;3.05;;;28.00;42.70;;;;;;6245379;22;92791;-68
2023/05/29 14:04:13;;;;;;;7.40;2.28;;;28.10;43.20;;;;;;6247089;22;92004;-68
2023/05/29 14:06:38;;;;;;;5.78;2.50;;;28.10;40.60;;;;;;6247937;22;92019;-68
2023/05/29 14:09:04;;;;;;;4.22;2.17;;;28.20;43.30;;;;;;6249447;22;93758;-67
2023/05/29 14:11:30;;;;;;;5.28;2.15;;;28.10;42.50;;;;;;6249030;22;93069;-69
2023/05/29 14:13:57;;;;;;;7.18;2.50;;;28.00;40.60;;;;;;6250088;22;92518;-68
2023/05/29 14:16:22;;;;;;;9.02;2.30;;;28.00;41.70;;;;;;6246966;22;92513;-69
2023/05/29 14:18:48;;;;;;;10.25;2.40;;;27.80;43.90;;;;;;6247579;22;93057;-51
2023/05/29 14:21:14;;;;;;;5.03;2.95;;;27.80;43.10;;;;;;6248550;22;92438;-54
2023/05/29 14:23:39;;;;;;;5.32;2.85;;;27.70;45.00;;;;;;6251153;22;92056;-54
2023/05/29 14:26:05;;;;;;;5.68;2.60;;;27.70;45.10;;;;;;6250531;22;91324;-54
2023/05/29 14:28:31;;;;;;;4.22;1.95;;;27.60;44.30;;;;;;6249849;22;93041;-57
2023/05/29 14:30:56;;;;;;;5.60;2.35;;;27.60;45.10;;;;;;6249151;22;93078;-53
2023/05/29 14:33:22;;;;;;;5.45;2.50;;;27.60;45.30;;;;;;6243711;22;93209;-56
2023/05/29 14:35:48;;;;;;;6.75;2.53;;;27.60;45.30;;;;;;6246206;22;92184;-54
2023/05/29 14:38:13;;;;;;;6.93;2.25;;;27.60;43.50;;;;;;6248506;22;92784;-54
2023/05/29 14:40:39;;;;;;;3.67;1.95;;;27.60;45.00;;;;;;6247711;22;92745;-53
2023/05/29 14:43:05;;;;;;;7.15;2.35;;;27.60;46.30;;;;;;6250110;22;92424;-53
2023/05/29 14:45:31;;;;;;;4.40;2.13;;;27.60;46.30;;;;;;6248535;22;92807;-55
2023/05/29 14:47:57;;;;;;;6.25;1.90;;;27.60;45.70;;;;;;6245251;22;95020;-53
2023/05/29 14:50:22;;;;;;;7.40;2.53;;;27.50;46.10;;;;;;6245695;22;92258;-55
2023/05/29 14:52:48;;;;;;;6.10;2.03;;;27.40;46.60;;;;;;6249345;22;92194;-54
2023/05/29 14:55:16;;;;;;;9.73;2.13;;;27.10;42.00;;;;;;6249847;22;92334;-54
2023/05/29 14:57:42;;;;;;;8.05;2.63;;;27.20;44.20;;;;;;6248511;22;93811;-55
2023/05/29 15:00:08;;;;;;;9.65;2.38;;;27.20;44.40;;;;;;6248196;22;95418;-53
2023/05/29 15:02:34;;;;;;;6.45;2.47;;;27.30;45.50;;;;;;6249919;22;92170;-56
2023/05/29 15:05:00;;;;;;;9.13;2.35;;;27.30;45.40;;;;;;6247539;22;92092;-52
2023/05/29 15:07:26;;;;;;;6.65;2.20;;;27.30;45.50;;;;;;6247511;22;93865;-54
2023/05/29 15:09:52;;;;;;;4.18;2.15;;;27.20;43.50;;;;;;6249313;22;92451;-54
2023/05/29 15:12:18;;;;;;;5.10;2.15;;;27.10;44.30;;;;;;6248054;22;92625;-55
2023/05/29 15:14:43;;;;;;;5.82;2.08;;;27.10;43.10;;;;;;6250115;22;91328;-53
2023/05/29 15:17:09;;;;;;;6.10;2.30;;;27.00;43.20;;;;;;6247568;22;92651;-54
2023/05/29 15:19:36;;;;;;;5.13;2.13;;;27.00;44.40;;;;;;6246829;22;93547;-55
2023/05/29 15:22:01;;;;;;;9.38;1.90;;;27.00;43.20;;;;;;6247859;22;93129;-55
2023/05/29 15:24:27;;;;;;;6.63;2.22;;;26.90;42.90;;;;;;6249174;22;92450;-57
2023/05/29 15:26:52;;;;;;;13.63;2.35;;;26.90;42.90;;;;;;6247899;22;93799;-54
2023/05/29 15:29:18;;;;;;;7.93;2.13;;;26.80;45.00;;;;;;6248621;22;93231;-54
2023/05/29 15:31:44;;;;;;;7.25;2.33;;;26.80;45.50;;;;;;6249242;22;92311;-54
2023/05/29 15:34:10;;;;;;;4.60;1.75;;;26.80;44.90;;;;;;6250231;22;92540;-53
2023/05/29 15:36:38;;;;;;;8.43;1.95;;;26.70;44.20;;;;;;6247188;22;92527;-53
2023/05/29 15:39:04;;;;;;;5.22;2.20;;;26.60;45.70;;;;;;6250246;22;92760;-51
2023/05/29 15:41:31;;;;;;;6.05;2.35;;;26.50;43.80;;;;;;6249842;22;92396;-53
2023/05/29 15:43:57;;;;;;;6.35;2.38;;;26.60;43.60;;;;;;6250391;22;92212;-52
2023/05/29 15:46:27;;;;;;;9.40;2.13;;;26.70;45.80;;;;;;6247918;22;93905;-54
2023/05/29 15:48:53;;;;;;;9.85;2.65;;;26.50;44.60;;;;;;6246436;22;95017;-50
2023/05/29 15:51:18;;;;;;;8.65;2.13;;;26.40;46.00;;;;;;6245853;22;92352;-55
2023/05/29 15:53:44;;;;;;;4.90;3.00;;;26.40;43.50;;;;;;6247137;22;92015;-55
2023/05/29 15:56:10;;;;;;;10.18;1.92;;;26.40;42.70;;;;;;6248527;22;93664;-50
2023/05/29 15:58:36;;;;;;;4.55;1.75;;;26.30;46.70;;;;;;6248356;22;92403;-52
2023/05/29 16:01:02;;;;;;;5.13;1.98;;;26.30;44.10;;;;;;6247508;22;93818;-53
2023/05/29 16:03:28;;;;;;;6.13;2.03;;;26.20;45.90;;;;;;6249225;22;91850;-54